Time;durP1;ratioP1;P1;durP2;ratioP2;P2;SDS_P1;SDS_P2;PMS_P1;PMS_P2;Temp;Humidity;BMP_temperature;BMP_pressure;BME280_temperature;BME280_humidity;BME280_pressure;Samples;Min_cycle;Max_cycle;Signal;HPM_P1;HPM_P2
2021/09/04 00:00:34;;;;;;;;;;;;;;;11.15;93.09;98235.99;1712263;84;20734;-73
2021/09/04 00:03:02;;;;;;;;;;;;;;;11.11;92.85;98234.09;1712457;84;20187;-74
2021/09/04 00:05:29;;;;;;;;;;;;;;;11.11;92.69;98230.03;1712207;83;20140;-74
2021/09/04 00:07:55;;;;;;;;;;;;;;;11.04;92.86;98226.83;1712551;84;20128;-78
2021/09/04 00:10:21;;;;;;;;;;;;;;;11.01;92.26;98228.17;1714786;83;21009;-74
2021/09/04 00:12:47;;;;;;;;;;;;;;;10.93;92.34;98225.49;1716095;83;20178;-78
2021/09/04 00:15:13;;;;;;;;;;;;;;;10.83;92.53;98224.17;1715975;83;20182;-74
2021/09/04 00:17:39;;;;;;;;;;;;;;;10.79;92.66;98222.31;1716004;83;20142;-73
2021/09/04 00:20:07;;;;;;;;;;;;;;;10.74;93.64;98220.41;1715921;83;20138;-74
2021/09/04 00:22:32;;;;;;;;;;;;;;;10.71;93.54;98225.84;1716220;83;21125;-73
2021/09/04 00:24:58;;;;;;;;;;;;;;;10.72;94.18;98227.47;1715972;83;20250;-78
2021/09/04 00:27:24;;;;;;;;;;;;;;;10.71;94.25;98228.56;1715925;83;20253;-74
2021/09/04 00:29:50;;;;;;;;;;;;;;;10.70;93.96;98231.55;1716093;83;20138;-73
2021/09/04 00:32:15;;;;;;;;;;;;;;;10.65;94.78;98232.91;1715986;83;20663;-78
2021/09/04 00:34:41;;;;;;;;;;;;;;;10.64;93.88;98232.64;1715993;83;21613;-73
2021/09/04 00:37:07;;;;;;;;;;;;;;;10.60;93.37;98232.94;1715870;83;20201;-78
2021/09/04 00:39:33;;;;;;;;;;;;;;;10.55;93.78;98236.45;1716006;83;20659;-73
2021/09/04 00:41:59;;;;;;;;;;;;;;;10.52;92.83;98239.72;1715955;83;20210;-78
2021/09/04 00:44:24;;;;;;;;;;;;;;;10.50;92.21;98232.38;1716162;83;20218;-73
2021/09/04 00:46:50;;;;;;;;;;;;;;;10.47;92.02;98226.71;1716000;83;21133;-78
2021/09/04 00:49:16;;;;;;;;;;;;;;;10.43;93.73;98225.92;1715983;83;20177;-73
2021/09/04 00:51:42;;;;;;;;;;;;;;;10.49;93.68;98228.59;1716038;83;20166;-78
2021/09/04 00:54:08;;;;;;;;;;;;;;;10.49;94.30;98235.38;1716110;83;20154;-78
2021/09/04 00:56:35;;;;;;;;;;;;;;;10.59;93.48;98233.99;1715998;83;20174;-78
2021/09/04 00:59:07;;;;;;;;;;;;;;;10.63;92.98;98230.47;1721648;83;20986;-73
2021/09/04 01:01:33;;;;;;;;;;;;;;;10.68;93.29;98226.92;1716095;83;20137;-73
2021/09/04 01:03:59;;;;;;;;;;;;;;;10.66;93.86;98225.04;1716162;83;20144;-78
2021/09/04 01:06:25;;;;;;;;;;;;;;;10.64;94.24;98225.86;1716018;83;20150;-78
2021/09/04 01:08:50;;;;;;;;;;;;;;;10.66;93.74;98227.20;1716111;83;20206;-73
2021/09/04 01:11:16;;;;;;;;;;;;;;;10.64;93.50;98227.22;1715836;83;21035;-73
2021/09/04 01:13:42;;;;;;;;;;;;;;;10.60;93.32;98228.87;1716021;83;20182;-78
2021/09/04 01:16:08;;;;;;;;;;;;;;;10.45;93.43;98225.09;1716165;83;20203;-73
2021/09/04 01:18:34;;;;;;;;;;;;;;;10.41;94.12;98230.77;1716067;83;20264;-78
2021/09/04 01:21:06;;;;;;;;;;;;;;;10.36;93.98;98232.70;1716129;83;20174;-74
2021/09/04 01:23:32;;;;;;;;;;;;;;;10.31;94.38;98232.69;1716062;83;21072;-78
2021/09/04 01:26:06;;;;;;;;;;;;;;;10.28;93.38;98231.34;1715926;83;20234;-74
2021/09/04 01:28:32;;;;;;;;;;;;;;;10.21;93.08;98229.42;1715783;83;20404;-73
2021/09/04 01:30:58;;;;;;;;;;;;;;;10.18;93.72;98229.98;1715860;83;20166;-78
2021/09/04 01:33:24;;;;;;;;;;;;;;;10.13;94.89;98228.61;1716206;83;20289;-73
2021/09/04 01:35:49;;;;;;;;;;;;;;;10.08;95.41;98229.95;1716053;83;21076;-73
2021/09/04 01:38:15;;;;;;;;;;;;;;;10.10;94.97;98234.58;1716072;83;20169;-78
2021/09/04 01:40:41;;;;;;;;;;;;;;;10.10;94.96;98234.58;1716071;83;20265;-78
2021/09/04 01:43:07;;;;;;;;;;;;;;;10.06;94.87;98228.88;1716171;83;20177;-78
2021/09/04 01:45:33;;;;;;;;;;;;;;;10.03;95.49;98228.08;1716065;83;20284;-76
2021/09/04 01:47:58;;;;;;;;;;;;;;;10.03;95.35;98229.97;1716191;83;21152;-73
2021/09/04 01:50:24;;;;;;;;;;;;;;;10.03;95.30;98223.20;1715807;83;20789;-74
2021/09/04 01:52:50;;;;;;;;;;;;;;;10.04;95.47;98226.99;1715823;83;20230;-78
2021/09/04 01:55:17;;;;;;;;;;;;;;;10.07;95.14;98224.27;1715880;83;20477;-78
2021/09/04 01:57:43;;;;;;;;;;;;;;;10.08;94.86;98225.38;1715968;83;20145;-73
2021/09/04 02:00:10;;;;;;;;;;;;;;;10.08;93.89;98221.83;1715892;83;21034;-78
2021/09/04 02:02:36;;;;;;;;;;;;;;;10.08;94.04;98222.67;1715776;83;20403;-78
2021/09/04 02:05:02;;;;;;;;;;;;;;;10.10;94.29;98220.50;1715994;83;20245;-78
2021/09/04 02:07:29;;;;;;;;;;;;;;;10.08;94.10;98224.03;1715843;83;20417;-78
2021/09/04 02:09:54;;;;;;;;;;;;;;;10.05;94.24;98218.33;1713163;83;20155;-73
2021/09/04 02:12:20;;;;;;;;;;;;;;;10.05;94.15;98222.39;1708123;83;21111;-73
2021/09/04 02:14:46;;;;;;;;;;;;;;;10.06;93.90;98217.23;1708064;83;20166;-78
2021/09/04 02:17:12;;;;;;;;;;;;;;;10.04;93.60;98209.39;1708084;83;20182;-78
2021/09/04 02:19:37;;;;;;;;;;;;;;;10.01;94.47;98209.13;1708225;84;20159;-78
2021/09/04 02:22:03;;;;;;;;;;;;;;;10.01;94.02;98205.08;1708083;83;20179;-73
2021/09/04 02:24:29;;;;;;;;;;;;;;;9.98;94.34;98206.95;1708171;83;21103;-78
2021/09/04 02:26:56;;;;;;;;;;;;;;;9.97;93.99;98210.74;1707926;83;20132;-74
2021/09/04 02:29:22;;;;;;;;;;;;;;;9.95;93.74;98212.91;1708063;84;20168;-78
2021/09/04 02:31:47;;;;;;;;;;;;;;;9.88;94.13;98207.77;1708197;83;20154;-78
2021/09/04 02:34:13;;;;;;;;;;;;;;;9.85;94.20;98207.77;1708113;83;20163;-78
2021/09/04 02:36:39;;;;;;;;;;;;;;;9.77;93.90;98202.90;1708207;83;21088;-73
2021/09/04 02:39:04;;;;;;;;;;;;;;;9.73;93.68;98200.98;1708151;83;20182;-74
2021/09/04 02:41:30;;;;;;;;;;;;;;;9.65;94.52;98207.73;1708242;83;20178;-78
2021/09/04 02:43:56;;;;;;;;;;;;;;;9.62;94.52;98209.64;1708098;83;20151;-73
2021/09/04 02:46:22;;;;;;;;;;;;;;;9.57;94.75;98204.20;1707933;83;20160;-73
2021/09/04 02:48:48;;;;;;;;;;;;;;;9.53;94.81;98212.06;1708110;83;21666;-73
2021/09/04 02:51:14;;;;;;;;;;;;;;;9.47;95.16;98215.02;1708067;83;20217;-73
2021/09/04 02:53:39;;;;;;;;;;;;;;;9.44;94.78;98209.61;1708119;83;20629;-78
2021/09/04 02:56:05;;;;;;;;;;;;;;;9.43;95.90;98216.11;1708119;83;20723;-73
2021/09/04 02:58:31;;;;;;;;;;;;;;;9.43;95.60;98208.53;1708166;83;20179;-73
2021/09/04 03:00:57;;;;;;;;;;;;;;;9.40;95.07;98209.89;1708239;83;21680;-73
2021/09/04 03:03:22;;;;;;;;;;;;;;;9.34;94.57;98201.48;1708080;83;20190;-73
2021/09/04 03:05:48;;;;;;;;;;;;;;;9.36;94.17;98202.56;1708249;83;20244;-78
2021/09/04 03:08:14;;;;;;;;;;;;;;;9.33;94.16;98203.92;1707986;83;20190;-78
2021/09/04 03:10:40;;;;;;;;;;;;;;;9.33;94.77;98204.73;1712202;83;20164;-73
2021/09/04 03:13:06;;;;;;;;;;;;;;;9.32;95.08;98205.81;1715842;83;21179;-78
2021/09/04 03:15:31;;;;;;;;;;;;;;;9.33;95.67;98197.97;1715997;83;20201;-74
2021/09/04 03:17:57;;;;;;;;;;;;;;;9.33;95.22;98201.21;1715927;83;20189;-78
2021/09/04 03:20:23;;;;;;;;;;;;;;;9.35;94.82;98200.40;1715889;83;20291;-73
2021/09/04 03:22:49;;;;;;;;;;;;;;;9.41;94.17;98202.59;1715936;83;20189;-78
2021/09/04 03:25:15;;;;;;;;;;;;;;;9.41;94.66;98197.17;1721350;83;21326;-73
2021/09/04 03:27:41;;;;;;;;;;;;;;;9.44;94.59;98196.63;1715752;83;20217;-73
2021/09/04 03:30:08;;;;;;;;;;;;;;;9.47;95.33;98194.73;1715827;83;20404;-78
2021/09/04 03:32:34;;;;;;;;;;;;;;;9.48;94.29;98201.77;1715804;83;20515;-73
2021/09/04 03:35:00;;;;;;;;;;;;;;;9.47;93.67;98208.25;1715847;83;20418;-73
2021/09/04 03:37:25;;;;;;;;;;;;;;;9.43;93.92;98204.47;1715987;83;21163;-78
2021/09/04 03:39:51;;;;;;;;;;;;;;;9.41;94.67;98207.45;1715889;83;20162;-73
2021/09/04 03:42:17;;;;;;;;;;;;;;;9.38;95.27;98216.08;1716019;83;20166;-73
2021/09/04 03:44:43;;;;;;;;;;;;;;;9.39;94.76;98217.70;1715965;83;20139;-77
2021/09/04 03:47:09;;;;;;;;;;;;;;;9.35;95.35;98217.16;1715884;83;20762;-73
2021/09/04 03:49:34;;;;;;;;;;;;;;;9.33;94.92;98222.84;1715875;83;21110;-73
2021/09/04 03:52:00;;;;;;;;;;;;;;;9.35;94.69;98223.39;1715984;83;20162;-77
2021/09/04 03:54:26;;;;;;;;;;;;;;;9.35;94.88;98222.58;1715959;83;20158;-78
2021/09/04 03:56:53;;;;;;;;;;;;;;;9.32;96.00;98227.45;1716048;83;20206;-73
2021/09/04 03:59:20;;;;;;;;;;;;;;;9.38;94.23;98225.55;1716072;83;20427;-78
2021/09/04 04:01:48;;;;;;;;;;;;;;;9.40;94.78;98219.36;1716171;83;21207;-73
2021/09/04 04:04:13;;;;;;;;;;;;;;;9.47;93.36;98220.42;1716035;83;20152;-73
2021/09/04 04:06:39;;;;;;;;;;;;;;;9.50;94.49;98222.62;1716180;83;20174;-73
2021/09/04 04:09:05;;;;;;;;;;;;;;;9.54;95.07;98220.98;1716142;83;20134;-74
2021/09/04 04:11:30;;;;;;;;;;;;;;;9.53;94.27;98228.30;1715914;83;20147;-73
2021/09/04 04:13:56;;;;;;;;;;;;;;;9.45;93.45;98222.59;1716105;83;21345;-78
2021/09/04 04:16:22;;;;;;;;;;;;;;;9.37;93.44;98224.47;1716186;83;20181;-78
2021/09/04 04:18:48;;;;;;;;;;;;;;;9.28;93.92;98228.23;1716210;83;20270;-78
2021/09/04 04:21:13;;;;;;;;;;;;;;;9.22;93.43;98226.58;1715991;83;20174;-77
2021/09/04 04:23:40;;;;;;;;;;;;;;;9.27;93.03;98234.18;1716260;83;20138;-73
2021/09/04 04:26:05;;;;;;;;;;;;;;;9.24;92.91;98229.85;1716212;83;21050;-73
2021/09/04 04:28:31;;;;;;;;;;;;;;;9.27;93.01;98235.53;1715924;83;20150;-73
2021/09/04 04:30:57;;;;;;;;;;;;;;;9.31;94.41;98242.56;1716365;83;20245;-73
2021/09/04 04:33:22;;;;;;;;;;;;;;;9.30;94.06;98240.94;1715992;83;20186;-77
2021/09/04 04:35:48;;;;;;;;;;;;;;;9.29;93.46;98248.23;1715908;83;20241;-77
2021/09/04 04:38:14;;;;;;;;;;;;;;;9.27;93.85;98250.41;1715898;83;22006;-77
2021/09/04 04:40:40;;;;;;;;;;;;;;;9.21;93.57;98244.69;1716086;83;20213;-78
2021/09/04 04:43:06;;;;;;;;;;;;;;;9.19;93.34;98244.16;1715897;83;20169;-78
2021/09/04 04:45:31;;;;;;;;;;;;;;;9.18;94.00;98247.94;1716230;83;20170;-77
2021/09/04 04:47:57;;;;;;;;;;;;;;;9.21;93.62;98246.59;1715964;83;20205;-77
2021/09/04 04:50:23;;;;;;;;;;;;;;;9.27;95.07;98242.83;1716024;83;21043;-77
2021/09/04 04:52:49;;;;;;;;;;;;;;;9.35;94.58;98242.86;1715875;83;20193;-74
2021/09/04 04:55:14;;;;;;;;;;;;;;;9.37;94.75;98242.86;1716026;83;20256;-78
2021/09/04 04:57:40;;;;;;;;;;;;;;;9.45;93.92;98238.83;1715998;83;20177;-74
2021/09/04 05:00:06;;;;;;;;;;;;;;;9.53;93.06;98239.11;1716075;83;20253;-74
2021/09/04 05:02:32;;;;;;;;;;;;;;;9.58;93.65;98240.48;1716096;83;21116;-73
2021/09/04 05:04:58;;;;;;;;;;;;;;;9.68;94.22;98242.39;1716023;83;20209;-73
2021/09/04 05:07:23;;;;;;;;;;;;;;;9.85;92.69;98238.09;1716051;83;20689;-73
2021/09/04 05:09:49;;;;;;;;;;;;;;;9.93;92.57;98232.14;1716044;83;20592;-78
2021/09/04 05:12:15;;;;;;;;;;;;;;;9.97;93.51;98236.46;1715796;83;20174;-77
2021/09/04 05:14:41;;;;;;;;;;;;;;;10.05;92.95;98238.63;1716070;83;21074;-73
2021/09/04 05:17:33;;;;;;;;;;;;;;;10.07;93.46;98234.56;1716109;83;20177;-77
2021/09/04 05:20:05;;;;;;;;;;;;;;;10.13;93.26;98237.55;1714175;83;20439;-73
2021/09/04 05:22:31;;;;;;;;;;;;;;;10.25;92.78;98230.52;1715956;83;20467;-73
2021/09/04 05:24:57;;;;;;;;;;;;;;;10.35;92.50;98233.78;1715949;83;20248;-73
2021/09/04 05:27:22;;;;;;;;;;;;;;;10.39;92.30;98227.53;1715961;83;21096;-73
2021/09/04 05:29:48;;;;;;;;;;;;;;;10.45;92.68;98231.05;1715921;83;20152;-78
2021/09/04 05:32:22;;;;;;;;;;;;;;;10.48;92.75;98237.27;1715967;83;20181;-73
2021/09/04 05:34:42;;;;;;;;;;;;;;;10.60;92.44;98225.62;1716165;83;20136;-77
2021/09/04 05:37:08;;;;;;;;;;;;;;;10.72;91.80;98230.17;1715954;83;20194;-78
2021/09/04 05:39:33;;;;;;;;;;;;;;;10.73;91.67;98227.73;1716021;83;21077;-73
2021/09/04 05:41:59;;;;;;;;;;;;;;;10.87;91.90;98225.27;1716116;83;20166;-78
2021/09/04 05:44:25;;;;;;;;;;;;;;;11.08;92.09;98227.89;1716051;83;20249;-78
2021/09/04 05:46:50;;;;;;;;;;;;;;;11.26;91.47;98229.42;1716044;83;20134;-78
2021/09/04 05:49:16;;;;;;;;;;;;;;;11.53;91.52;98225.47;1716060;83;20143;-78
2021/09/04 05:51:42;;;;;;;;;;;;;;;11.78;91.36;98232.65;1716041;83;21075;-78
2021/09/04 05:54:08;;;;;;;;;;;;;;;11.99;91.11;98231.45;1715909;83;20229;-74
2021/09/04 05:56:33;;;;;;;;;;;;;;;12.02;90.24;98229.52;1716097;83;20241;-73
2021/09/04 05:58:59;;;;;;;;;;;;;;;12.02;89.31;98227.34;1715906;83;20142;-78
2021/09/04 06:01:25;;;;;;;;;;;;;;;12.00;88.74;98224.92;1716216;83;20150;-73
2021/09/04 06:03:51;;;;;;;;;;;;;;;12.00;88.52;98226.83;1715916;83;21059;-77
2021/09/04 06:06:16;;;;;;;;;;;;;;;12.01;88.35;98223.02;1716006;83;20158;-78
2021/09/04 06:08:42;;;;;;;;;;;;;;;12.02;88.89;98224.08;1715844;83;20158;-73
2021/09/04 06:11:08;;;;;;;;;;;;;;;12.16;88.65;98226.97;1715874;83;20673;-78
2021/09/04 06:13:34;;;;;;;;;;;;;;;12.32;88.32;98227.66;1715822;83;20197;-78
2021/09/04 06:15:59;;;;;;;;;;;;;;;12.43;88.31;98227.81;1716185;83;21090;-78
2021/09/04 06:18:25;;;;;;;;;;;;;;;12.65;87.74;98225.42;1715875;83;20158;-73
2021/09/04 06:20:51;;;;;;;;;;;;;;;12.82;87.82;98226.84;1716077;83;20190;-78
2021/09/04 06:23:17;;;;;;;;;;;;;;;13.10;87.22;98219.75;1715949;83;20202;-74
2021/09/04 06:25:42;;;;;;;;;;;;;;;13.32;87.05;98221.93;1716102;83;20280;-73
2021/09/04 06:28:08;;;;;;;;;;;;;;;13.63;87.01;98224.50;1715859;83;21188;-78
2021/09/04 06:30:34;;;;;;;;;;;;;;;13.86;86.38;98217.91;1716079;83;20241;-74
2021/09/04 06:33:00;;;;;;;;;;;;;;;13.97;85.53;98222.89;1715859;83;20619;-73
2021/09/04 06:35:25;;;;;;;;;;;;;;;14.12;84.38;98224.58;1715801;83;20162;-78
2021/09/04 06:37:51;;;;;;;;;;;;;;;14.54;84.54;98213.26;1715870;83;20146;-78
2021/09/04 06:40:17;;;;;;;;;;;;;;;14.76;83.65;98218.82;1715876;83;21154;-78
2021/09/04 06:42:43;;;;;;;;;;;;;;;14.77;82.46;98216.34;1715809;83;20682;-78
2021/09/04 06:45:09;;;;;;;;;;;;;;;14.92;81.21;98223.43;1715792;83;20241;-74
2021/09/04 06:47:35;;;;;;;;;;;;;;;14.95;81.29;98220.92;1715847;83;20435;-78
2021/09/04 06:50:00;;;;;;;;;;;;;;;15.35;80.41;98219.01;1715849;83;20238;-74
2021/09/04 06:52:26;;;;;;;;;;;;;;;15.72;79.92;98224.77;1715963;83;21071;-78
2021/09/04 06:54:52;;;;;;;;;;;;;;;16.15;79.88;98222.41;1715981;83;20221;-78
2021/09/04 06:57:17;;;;;;;;;;;;;;;16.54;79.29;98221.66;1715946;83;20225;-78
2021/09/04 06:59:43;;;;;;;;;;;;;;;16.91;75.90;98225.89;1716000;83;20166;-74
2021/09/04 07:02:09;;;;;;;;;;;;;;;17.11;76.39;98223.73;1715991;83;20166;-74
2021/09/04 07:04:35;;;;;;;;;;;;;;;17.36;75.83;98229.03;1716083;83;21082;-74
2021/09/04 07:07:05;;;;;;;;;;;;;;;17.85;75.39;98232.49;1715964;83;20217;-74
2021/09/04 07:09:31;;;;;;;;;;;;;;;18.15;74.87;98231.53;1716054;83;20239;-74
2021/09/04 07:11:57;;;;;;;;;;;;;;;18.66;74.32;98223.00;1715815;83;20152;-79
2021/09/04 07:14:23;;;;;;;;;;;;;;;19.20;70.59;98218.33;1715895;83;20154;-79
2021/09/04 07:16:49;;;;;;;;;;;;;;;19.41;71.29;98220.56;1716150;83;21087;-79
2021/09/04 07:19:14;;;;;;;;;;;;;;;19.77;69.62;98219.22;1715684;83;20221;-79
2021/09/04 07:21:40;;;;;;;;;;;;;;;20.22;69.10;98229.75;1716110;83;20234;-74
2021/09/04 07:24:06;;;;;;;;;;;;;;;20.71;67.93;98221.67;1715764;83;20232;-74
2021/09/04 07:26:32;;;;;;;;;;;;;;;20.98;63.56;98220.80;1716121;83;20253;-79
2021/09/04 07:28:58;;;;;;;;;;;;;;;20.99;62.97;98215.52;1715785;83;21036;-74
2021/09/04 07:31:24;;;;;;;;;;;;;;;21.02;62.63;98217.03;1716066;83;20274;-79
2021/09/04 07:33:50;;;;;;;;;;;;;;;21.56;63.29;98220.93;1715773;83;20233;-75
2021/09/04 07:36:16;;;;;;;;;;;;;;;21.95;61.83;98217.95;1716168;83;20151;-75
2021/09/04 07:38:42;;;;;;;;;;;;;;;22.58;61.08;98213.83;1715929;83;20427;-79
2021/09/04 07:41:08;;;;;;;;;;;;;;;22.83;56.55;98214.48;1716120;83;21093;-79
2021/09/04 07:43:34;;;;;;;;;;;;;;;22.43;57.05;98216.19;1715894;83;20166;-74
2021/09/04 07:45:59;;;;;;;;;;;;;;;22.84;56.28;98211.94;1716059;83;20174;-79
2021/09/04 07:48:25;;;;;;;;;;;;;;;22.77;59.63;98219.45;1715846;83;20261;-79
2021/09/04 07:50:52;;;;;;;;;;;;;;;23.39;59.25;98215.09;1716253;83;20130;-78
2021/09/04 07:53:18;;;;;;;;;;;;;;;23.47;56.04;98215.48;1715935;83;21101;-74
2021/09/04 07:55:44;;;;;;;;;;;;;;;23.76;55.91;98217.55;1716077;83;20171;-75
2021/09/04 07:58:10;;;;;;;;;;;;;;;24.42;57.03;98214.58;1715948;83;20178;-74
2021/09/04 08:00:35;;;;;;;;;;;;;;;24.62;51.48;98210.42;1716046;83;20702;-75
2021/09/04 08:03:01;;;;;;;;;;;;;;;25.42;55.44;98209.41;1715912;83;20190;-80
2021/09/04 08:05:27;;;;;;;;;;;;;;;25.76;48.22;98208.94;1715828;83;21151;-75
2021/09/04 08:07:53;;;;;;;;;;;;;;;26.75;54.70;98216.90;1715936;83;20186;-75
2021/09/04 08:10:18;;;;;;;;;;;;;;;27.37;53.60;98217.06;1715750;83;20253;-80
2021/09/04 08:12:44;;;;;;;;;;;;;;;27.11;44.49;98218.64;1709372;83;20154;-80
2021/09/04 08:15:10;;;;;;;;;;;;;;;27.45;43.98;98208.18;1708092;83;20154;-76
2021/09/04 08:17:36;;;;;;;;;;;;;;;28.29;45.31;98210.48;1708063;84;21158;-75
2021/09/04 08:20:02;;;;;;;;;;;;;;;28.96;46.00;98207.64;1707852;83;20096;-80
2021/09/04 08:22:28;;;;;;;;;;;;;;;28.76;44.31;98207.99;1708160;83;20136;-80
2021/09/04 08:24:55;;;;;;;;;;;;;;;28.86;43.51;98209.99;1707917;83;20172;-75
2021/09/04 08:27:21;;;;;;;;;;;;;;;29.51;42.62;98209.46;1707903;83;20129;-76
2021/09/04 08:29:49;;;;;;;;;;;;;;;30.08;41.98;98207.13;1708043;83;21177;-80
2021/09/04 08:32:15;;;;;;;;;;;;;;;30.82;44.30;98214.38;1708119;83;20132;-75
2021/09/04 08:34:41;;;;;;;;;;;;;;;30.98;40.55;98210.46;1707973;83;20190;-80
2021/09/04 08:37:06;;;;;;;;;;;;;;;31.03;38.46;98211.44;1707845;83;20143;-76
2021/09/04 08:39:32;;;;;;;;;;;;;;;31.56;40.76;98210.20;1707902;83;20139;-80
2021/09/04 08:41:58;;;;;;;;;;;;;;;31.42;39.32;98216.72;1708079;83;21858;-76
2021/09/04 08:44:24;;;;;;;;;;;;;;;31.11;34.59;98215.77;1707895;84;20635;-80
2021/09/04 08:46:50;;;;;;;;;;;;;;;30.29;33.37;98219.63;1708199;84;20234;-75
2021/09/04 08:49:18;;;;;;;;;;;;;;;30.61;34.52;98216.68;1708096;83;20424;-76
2021/09/04 08:51:44;;;;;;;;;;;;;;;28.94;35.69;98219.20;1708254;83;20167;-76
2021/09/04 08:54:10;;;;;;;;;;;;;;;30.02;34.45;98215.92;1708040;83;21108;-75
2021/09/04 08:56:36;;;;;;;;;;;;;;;30.36;34.06;98214.02;1708178;83;20166;-76
2021/09/04 08:59:01;;;;;;;;;;;;;;;29.05;34.85;98213.62;1708094;83;20262;-76
2021/09/04 09:01:28;;;;;;;;;;;;;;;29.91;34.10;98219.92;1708206;83;20627;-80
2021/09/04 09:03:55;;;;;;;;;;;;;;;31.16;35.65;98220.12;1708029;83;20183;-76
2021/09/04 09:06:30;;;;;;;;;;;;;;;31.34;30.70;98221.39;1708179;83;21060;-76
2021/09/04 09:08:56;;;;;;;;;;;;;;;31.02;31.12;98223.02;1708112;83;20108;-80
2021/09/04 09:11:22;;;;;;;;;;;;;;;31.28;31.40;98216.86;1708214;83;20144;-76
2021/09/04 09:13:49;;;;;;;;;;;;;;;32.16;32.68;98212.17;1708162;83;20127;-80
2021/09/04 09:16:16;;;;;;;;;;;;;;;31.81;28.35;98217.59;1708565;83;20133;-76
2021/09/04 09:18:42;;;;;;;;;;;;;;;32.69;31.30;98207.88;1708149;84;20999;-80
2021/09/04 09:21:07;;;;;;;;;;;;;;;32.15;30.23;98209.98;1708162;83;20170;-76
2021/09/04 09:23:33;;;;;;;;;;;;;;;30.69;31.13;98222.45;1708194;83;20215;-80
2021/09/04 09:26:07;;;;;;;;;;;;;;;28.63;35.18;98214.55;1708193;84;20194;-80
2021/09/04 09:28:33;;;;;;;;;;;;;;;27.06;37.65;98221.17;1708175;83;20408;-80
2021/09/04 09:31:00;;;;;;;;;;;;;;;26.36;39.72;98220.02;1708303;83;21099;-80
2021/09/04 09:33:27;;;;;;;;;;;;;;;25.68;41.09;98218.31;1708018;83;20144;-76
2021/09/04 09:35:55;;;;;;;;;;;;;;;25.02;42.55;98216.84;1708293;83;20412;-80
2021/09/04 09:38:28;;;;;;;;;;;;;;;24.38;43.96;98216.50;1707984;83;20466;-80
2021/09/04 09:40:54;;;;;;;;;;;;;;;23.96;44.94;98215.59;1708363;83;20152;-79
2021/09/04 09:43:23;;;;;;;;;;;;;;;23.33;45.98;98220.11;1708118;84;21133;-75
2021/09/04 09:45:53;;;;;;;;;;;;;;;23.04;46.62;98215.83;1708309;83;20136;-75
2021/09/04 09:48:27;;;;;;;;;;;;;;;22.24;47.60;98222.38;1708180;83;20163;-75
2021/09/04 09:50:54;;;;;;;;;;;;;;;22.28;47.42;98218.33;1708266;83;20160;-75
2021/09/04 09:53:20;;;;;;;;;;;;;;;22.27;48.25;98218.11;1708218;83;20145;-79
2021/09/04 09:55:47;;;;;;;;;;;;;;;22.13;48.96;98221.83;1708228;83;21107;-79
2021/09/04 09:58:14;;;;;;;;;;;;;;;22.08;48.99;98216.58;1708121;83;20428;-79
2021/09/04 10:00:40;;;;;;;;;;;;;;;21.94;49.64;98219.11;1708294;83;20431;-75
2021/09/04 10:03:07;;;;;;;;;;;;;;;22.00;49.56;98223.81;1708171;83;20156;-75
2021/09/04 10:05:33;;;;;;;;;;;;;;;21.92;50.37;98220.04;1708177;83;20144;-75
2021/09/04 10:07:59;;;;;;;;;;;;;;;21.71;50.08;98228.27;1708263;83;21095;-75
2021/09/04 10:10:30;;;;;;;;;;;;;;;21.44;49.72;98222.30;1707909;83;20189;-79
2021/09/04 10:12:56;;;;;;;;;;;;;;;21.44;48.98;98223.69;1713093;83;20168;-75
2021/09/04 10:15:23;;;;;;;;;;;;;;;21.35;49.91;98223.80;1715830;83;20731;-78
2021/09/04 10:17:50;;;;;;;;;;;;;;;21.39;49.53;98217.84;1716157;83;20140;-75
2021/09/04 10:20:16;;;;;;;;;;;;;;;21.29;50.78;98218.31;1715866;83;21851;-75
2021/09/04 10:22:43;;;;;;;;;;;;;;;21.38;51.90;98214.87;1716014;83;20302;-79
2021/09/04 10:25:16;;;;;;;;;;;;;;;21.51;51.83;98214.84;1715753;83;20131;-79
2021/09/04 10:27:43;;;;;;;;;;;;;;;21.52;51.67;98217.25;1716103;83;20140;-79
2021/09/04 10:30:34;;;;;;;;;;;;;;;21.46;51.38;98213.72;1715890;83;20153;-75
2021/09/04 10:33:08;;;;;;;;;;;;;;;21.30;50.66;98219.92;1716054;83;21770;-75
2021/09/04 10:35:38;;;;;;;;;;;;;;;21.23;52.20;98214.72;1716009;83;20541;-79
2021/09/04 10:38:12;;;;;;;;;;;;;;;21.40;51.61;98211.76;1715770;83;20175;-75
2021/09/04 10:40:38;;;;;;;;;;;;;;;21.30;51.24;98217.74;1714648;83;20136;-75
2021/09/04 10:43:06;;;;;;;;;;;;;;;21.39;51.70;98213.72;1716177;83;20957;-80
2021/09/04 10:45:32;;;;;;;;;;;;;;;21.43;51.09;98211.05;1715835;83;21133;-79
2021/09/04 10:47:58;;;;;;;;;;;;;;;21.64;51.19;98212.30;1715959;83;20262;-79
2021/09/04 10:50:29;;;;;;;;;;;;;;;21.44;49.71;98208.52;1715744;83;20308;-75
2021/09/04 10:53:04;;;;;;;;;;;;;;;21.48;50.25;98208.08;1715920;83;20388;-79
2021/09/04 10:55:36;;;;;;;;;;;;;;;21.47;49.55;98209.23;1697572;83;20434;-75
2021/09/04 10:58:10;;;;;;;;;;;;;;;21.34;49.33;98213.13;1716169;83;21025;-75
2021/09/04 11:00:40;;;;;;;;;;;;;;;21.53;50.57;98213.91;1715662;83;20186;-75
2021/09/04 11:03:08;;;;;;;;;;;;;;;21.61;51.17;98216.54;1716019;83;20140;-80
2021/09/04 11:05:41;;;;;;;;;;;;;;;21.65;51.35;98211.95;1715840;83;20408;-79
2021/09/04 11:08:10;;;;;;;;;;;;;;;21.76;51.53;98211.47;1716084;83;20432;-75
2021/09/04 11:10:40;;;;;;;;;;;;;;;21.62;52.21;98205.77;1715847;83;21021;-80
2021/09/04 11:13:17;;;;;;;;;;;;;;;21.58;52.14;98203.45;1714692;83;20139;-79
2021/09/04 11:15:45;;;;;;;;;;;;;;;21.57;52.82;98207.37;1715868;83;20136;-75
2021/09/04 11:18:12;;;;;;;;;;;;;;;21.52;51.96;98202.66;1715946;83;20160;-75
2021/09/04 11:20:44;;;;;;;;;;;;;;;21.43;49.96;98202.78;1715938;83;20164;-79
2021/09/04 11:23:10;;;;;;;;;;;;;;;21.28;50.80;98199.38;1716079;83;21295;-75
2021/09/04 11:25:39;;;;;;;;;;;;;;;21.28;50.97;98197.42;1715877;83;20197;-79
2021/09/04 11:28:05;;;;;;;;;;;;;;;21.08;51.67;98198.30;1715936;83;20156;-75
2021/09/04 11:30:31;;;;;;;;;;;;;;;21.26;52.37;98194.16;1721373;83;20244;-79
2021/09/04 11:33:14;;;;;;;;;;;;;;;21.25;52.44;98206.33;1716140;83;20182;-79
2021/09/04 11:35:46;;;;;;;;;;;;;;;21.44;51.61;98211.86;1715929;83;21014;-79
2021/09/04 11:38:12;;;;;;;;;;;;;;;21.48;51.37;98201.77;1715755;83;20125;-75
2021/09/04 11:40:38;;;;;;;;;;;;;;;21.44;49.96;98198.88;1715779;83;20182;-80
2021/09/04 11:43:06;;;;;;;;;;;;;;;21.42;50.67;98200.38;1715993;83;20722;-75
2021/09/04 11:45:32;;;;;;;;;;;;;;;21.50;51.46;98191.98;1715257;83;20144;-79
2021/09/04 11:48:09;;;;;;;;;;;;;;;21.60;51.63;98198.39;1716124;83;21061;-75
2021/09/04 11:50:35;;;;;;;;;;;;;;;21.56;50.34;98196.70;1715733;83;20164;-77
2021/09/04 11:53:06;;;;;;;;;;;;;;;21.53;49.77;98202.88;1716154;83;20178;-79
2021/09/04 11:55:32;;;;;;;;;;;;;;;21.50;49.76;98202.21;1715806;83;20156;-75
2021/09/04 11:57:59;;;;;;;;;;;;;;;21.42;48.20;98207.27;1716224;83;20150;-79
2021/09/04 12:00:32;;;;;;;;;;;;;;;21.35;47.86;98200.95;1715708;83;21044;-75
2021/09/04 12:03:00;;;;;;;;;;;;;;;21.42;48.48;98201.77;1716104;83;20132;-75
2021/09/04 12:05:28;;;;;;;;;;;;;;;21.50;49.12;98200.25;1715692;83;20158;-75
2021/09/04 12:07:55;;;;;;;;;;;;;;;21.48;48.98;98197.05;1715972;83;20191;-79
2021/09/04 12:10:25;;;;;;;;;;;;;;;21.47;48.56;98198.20;1715702;83;20140;-75
2021/09/04 12:12:55;;;;;;;;;;;;;;;21.53;48.98;98194.03;1715849;83;21853;-75
2021/09/04 12:15:21;;;;;;;;;;;;;;;21.59;50.17;98203.69;1715653;83;20148;-79
2021/09/04 12:17:50;;;;;;;;;;;;;;;21.65;48.55;98198.74;1716153;83;20197;-79
2021/09/04 12:20:17;;;;;;;;;;;;;;;21.65;48.15;98200.92;1715397;83;20434;-79
2021/09/04 12:22:42;;;;;;;;;;;;;;;21.66;47.33;98204.48;1716269;83;20132;-79
2021/09/04 12:25:25;;;;;;;;;;;;;;;21.67;48.70;98202.75;1716025;83;21149;-79
2021/09/04 12:28:00;;;;;;;;;;;;;;;21.62;48.08;98201.63;1716214;83;20141;-79
2021/09/04 12:30:26;;;;;;;;;;;;;;;21.66;48.72;98198.97;1715570;83;20147;-75
2021/09/04 12:33:07;;;;;;;;;;;;;;;21.66;48.71;98201.72;1721759;83;20138;-80
2021/09/04 12:35:51;;;;;;;;;;;;;;;21.60;48.24;98198.97;1716105;83;20144;-75
2021/09/04 12:38:19;;;;;;;;;;;;;;;21.74;49.69;98199.41;1716216;83;21875;-76
2021/09/04 12:41:13;;;;;;;;;;;;;;;21.80;48.17;98199.98;1715932;83;20178;-75
2021/09/04 12:43:56;;;;;;;;;;;;;;;21.80;46.59;98198.60;1716223;83;20160;-75
2021/09/04 12:46:36;;;;;;;;;;;;;;;21.85;48.29;98204.66;1716114;83;20164;-75